sensor_id;sensor_type;location;lat;lon;timestamp;pressure;altitude;pressure_sealevel;temperature;humidity
12203;BME280;6164;42.178;24.622;2023-12-04T00:01:11;100103.56;;;5.03;100.00
12203;BME280;6164;42.178;24.622;2023-12-04T00:03:39;100103.81;;;5.00;100.00
12203;BME280;6164;42.178;24.622;2023-12-04T00:06:06;100114.03;;;4.92;100.00
12203;BME280;6164;42.178;24.622;2023-12-04T00:08:32;100113.91;;;5.04;100.00
12203;BME280;6164;42.178;24.622;2023-12-04T00:10:59;100111.31;;;4.93;100.00
12203;BME280;6164;42.178;24.622;2023-12-04T00:13:26;100108.34;;;4.87;100.00
12203;BME280;6164;42.178;24.622;2023-12-04T00:15:52;100112.00;;;4.84;100.00
12203;BME280;6164;42.178;24.622;2023-12-04T00:18:19;100117.72;;;4.78;100.00
12203;BME280;6164;42.178;24.622;2023-12-04T00:20:47;100121.44;;;4.76;100.00
12203;BME280;6164;42.178;24.622;2023-12-04T00:23:14;100127.97;;;4.70;100.00
12203;BME280;6164;42.178;24.622;2023-12-04T00:25:40;100138.53;;;4.69;100.00
12203;BME280;6164;42.178;24.622;2023-12-04T00:28:07;100152.56;;;4.68;100.00
12203;BME280;6164;42.178;24.622;2023-12-04T00:30:34;100155.28;;;4.66;100.00
12203;BME280;6164;42.178;24.622;2023-12-04T00:33:03;100158.50;;;4.70;100.00
12203;BME280;6164;42.178;24.622;2023-12-04T00:35:29;100169.56;;;4.62;100.00
12203;BME280;6164;42.178;24.622;2023-12-04T00:37:57;100187.50;;;4.67;100.00
12203;BME280;6164;42.178;24.622;2023-12-04T00:40:24;100175.63;;;4.74;100.00
12203;BME280;6164;42.178;24.622;2023-12-04T00:42:51;100169.91;;;4.69;100.00
12203;BME280;6164;42.178;24.622;2023-12-04T00:45:17;100179.41;;;4.70;100.00
12203;BME280;6164;42.178;24.622;2023-12-04T00:47:44;100178.47;;;4.71;100.00
12203;BME280;6164;42.178;24.622;2023-12-04T00:50:10;100179.66;;;4.67;100.00
12203;BME280;6164;42.178;24.622;2023-12-04T00:52:37;100182.63;;;4.62;100.00
12203;BME280;6164;42.178;24.622;2023-12-04T00:55:06;100175.72;;;4.61;100.00
12203;BME280;6164;42.178;24.622;2023-12-04T00:57:32;100182.75;;;4.61;100.00
12203;BME280;6164;42.178;24.622;2023-12-04T00:59:59;100178.56;;;4.58;100.00
12203;BME280;6164;42.178;24.622;2023-12-04T01:02:29;100193.09;;;4.62;100.00
12203;BME280;6164;42.178;24.622;2023-12-04T01:04:56;100199.59;;;4.57;100.00
12203;BME280;6164;42.178;24.622;2023-12-04T01:07:22;100201.13;;;4.48;100.00
12203;BME280;6164;42.178;24.622;2023-12-04T01:09:49;100207.69;;;4.54;100.00
12203;BME280;6164;42.178;24.622;2023-12-04T01:12:17;100200.31;;;4.59;100.00
12203;BME280;6164;42.178;24.622;2023-12-04T01:14:44;100190.22;;;4.54;100.00
12203;BME280;6164;42.178;24.622;2023-12-04T01:17:10;100200.91;;;4.51;100.00
12203;BME280;6164;42.178;24.622;2023-12-04T01:19:37;100197.22;;;4.43;100.00
12203;BME280;6164;42.178;24.622;2023-12-04T01:22:04;100198.25;;;4.40;100.00
12203;BME280;6164;42.178;24.622;2023-12-04T01:24:31;100202.31;;;4.44;100.00
12203;BME280;6164;42.178;24.622;2023-12-04T01:26:57;100203.72;;;4.37;100.00
12203;BME280;6164;42.178;24.622;2023-12-04T01:29:25;100199.81;;;4.43;100.00
12203;BME280;6164;42.178;24.622;2023-12-04T01:31:52;100189.72;;;4.38;100.00
12203;BME280;6164;42.178;24.622;2023-12-04T01:34:19;100195.88;;;4.37;100.00
12203;BME280;6164;42.178;24.622;2023-12-04T01:36:45;100197.16;;;4.32;100.00
12203;BME280;6164;42.178;24.622;2023-12-04T01:39:12;100189.78;;;4.26;100.00
12203;BME280;6164;42.178;24.622;2023-12-04T01:41:38;100187.88;;;4.28;100.00
12203;BME280;6164;42.178;24.622;2023-12-04T01:44:05;100198.47;;;4.26;100.00
12203;BME280;6164;42.178;24.622;2023-12-04T01:46:33;100203.69;;;4.26;100.00
12203;BME280;6164;42.178;24.622;2023-12-04T01:49:00;100206.19;;;4.28;100.00
12203;BME280;6164;42.178;24.622;2023-12-04T01:51:28;100207.34;;;4.24;100.00
12203;BME280;6164;42.178;24.622;2023-12-04T01:53:57;100211.97;;;4.20;100.00
12203;BME280;6164;42.178;24.622;2023-12-04T01:56:25;100212.81;;;4.21;100.00
12203;BME280;6164;42.178;24.622;2023-12-04T01:58:52;100202.81;;;4.15;100.00
12203;BME280;6164;42.178;24.622;2023-12-04T02:01:19;100201.34;;;4.11;100.00
12203;BME280;6164;42.178;24.622;2023-12-04T02:03:47;100192.59;;;4.12;100.00
12203;BME280;6164;42.178;24.622;2023-12-04T02:06:14;100208.69;;;4.05;100.00
12203;BME280;6164;42.178;24.622;2023-12-04T02:08:42;100207.59;;;3.97;100.00
12203;BME280;6164;42.178;24.622;2023-12-04T02:11:09;100224.00;;;3.99;100.00
12203;BME280;6164;42.178;24.622;2023-12-04T02:13:35;100205.81;;;3.97;100.00
12203;BME280;6164;42.178;24.622;2023-12-04T02:16:02;100221.25;;;4.00;100.00
12203;BME280;6164;42.178;24.622;2023-12-04T02:18:31;100215.00;;;4.03;100.00
12203;BME280;6164;42.178;24.622;2023-12-04T02:20:59;100216.88;;;4.01;100.00
12203;BME280;6164;42.178;24.622;2023-12-04T02:23:26;100230.66;;;4.03;100.00
12203;BME280;6164;42.178;24.622;2023-12-04T02:25:54;100232.22;;;4.05;100.00
12203;BME280;6164;42.178;24.622;2023-12-04T02:28:25;100225.44;;;4.03;100.00
12203;BME280;6164;42.178;24.622;2023-12-04T02:30:53;100231.28;;;4.07;100.00
12203;BME280;6164;42.178;24.622;2023-12-04T02:33:20;100233.06;;;4.06;100.00
12203;BME280;6164;42.178;24.622;2023-12-04T02:35:49;100241.00;;;4.04;100.00
12203;BME280;6164;42.178;24.622;2023-12-04T02:38:16;100233.41;;;4.01;100.00
12203;BME280;6164;42.178;24.622;2023-12-04T02:40:44;100244.47;;;4.05;100.00
12203;BME280;6164;42.178;24.622;2023-12-04T02:43:12;100246.97;;;4.07;100.00
12203;BME280;6164;42.178;24.622;2023-12-04T02:45:39;100252.19;;;4.07;100.00
12203;BME280;6164;42.178;24.622;2023-12-04T02:48:06;100256.78;;;4.03;100.00
12203;BME280;6164;42.178;24.622;2023-12-04T02:50:32;100248.34;;;3.99;100.00
12203;BME280;6164;42.178;24.622;2023-12-04T02:52:59;100252.94;;;3.96;100.00
12203;BME280;6164;42.178;24.622;2023-12-04T02:55:25;100252.91;;;3.85;100.00
12203;BME280;6164;42.178;24.622;2023-12-04T02:57:52;100250.00;;;3.77;100.00
12203;BME280;6164;42.178;24.622;2023-12-04T03:00:20;100249.16;;;3.76;100.00
12203;BME280;6164;42.178;24.622;2023-12-04T03:02:47;100242.31;;;3.63;100.00
12203;BME280;6164;42.178;24.622;2023-12-04T03:05:13;100249.50;;;3.59;100.00
12203;BME280;6164;42.178;24.622;2023-12-04T03:07:40;100263.19;;;3.63;100.00
12203;BME280;6164;42.178;24.622;2023-12-04T03:10:07;100282.94;;;3.54;100.00
12203;BME280;6164;42.178;24.622;2023-12-04T03:12:34;100280.53;;;3.51;100.00
12203;BME280;6164;42.178;24.622;2023-12-04T03:15:00;100299.56;;;3.53;100.00
12203;BME280;6164;42.178;24.622;2023-12-04T03:17:28;100292.56;;;3.54;100.00
12203;BME280;6164;42.178;24.622;2023-12-04T03:19:55;100293.19;;;3.57;100.00
12203;BME280;6164;42.178;24.622;2023-12-04T03:22:21;100298.41;;;3.45;100.00
12203;BME280;6164;42.178;24.622;2023-12-04T03:24:48;100305.50;;;3.43;100.00
12203;BME280;6164;42.178;24.622;2023-12-04T03:27:15;100301.97;;;3.44;100.00
12203;BME280;6164;42.178;24.622;2023-12-04T03:29:41;100305.72;;;3.40;100.00
12203;BME280;6164;42.178;24.622;2023-12-04T03:32:08;100305.72;;;3.40;100.00
12203;BME280;6164;42.178;24.622;2023-12-04T03:34:36;100329.31;;;3.38;100.00
12203;BME280;6164;42.178;24.622;2023-12-04T03:37:03;100310.31;;;3.36;100.00
12203;BME280;6164;42.178;24.622;2023-12-04T03:39:29;100315.44;;;3.38;100.00
12203;BME280;6164;42.178;24.622;2023-12-04T03:41:56;100310.03;;;3.41;100.00
12203;BME280;6164;42.178;24.622;2023-12-04T03:44:23;100309.91;;;3.42;100.00
12203;BME280;6164;42.178;24.622;2023-12-04T03:46:49;100315.25;;;3.41;100.00
12203;BME280;6164;42.178;24.622;2023-12-04T03:49:17;100318.56;;;3.43;100.00
12203;BME280;6164;42.178;24.622;2023-12-04T03:51:45;100317.84;;;3.41;100.00
12203;BME280;6164;42.178;24.622;2023-12-04T03:54:11;100327.44;;;3.40;100.00
12203;BME280;6164;42.178;24.622;2023-12-04T03:56:38;100326.09;;;3.47;100.00
12203;BME280;6164;42.178;24.622;2023-12-04T03:59:05;100337.75;;;3.54;100.00
12203;BME280;6164;42.178;24.622;2023-12-04T04:01:32;100337.06;;;3.52;100.00
12203;BME280;6164;42.178;24.622;2023-12-04T04:03:58;100332.03;;;3.49;100.00
12203;BME280;6164;42.178;24.622;2023-12-04T04:06:25;100335.59;;;3.48;100.00
12203;BME280;6164;42.178;24.622;2023-12-04T04:08:53;100330.47;;;3.47;100.00
12203;BME280;6164;42.178;24.622;2023-12-04T04:11:20;100330.47;;;3.47;100.00
12203;BME280;6164;42.178;24.622;2023-12-04T04:13:46;100327.84;;;3.47;100.00
12203;BME280;6164;42.178;24.622;2023-12-04T04:16:14;100336.22;;;3.39;100.00
12203;BME280;6164;42.178;24.622;2023-12-04T04:18:41;100344.13;;;3.38;100.00
12203;BME280;6164;42.178;24.622;2023-12-04T04:21:07;100349.56;;;3.35;100.00
12203;BME280;6164;42.178;24.622;2023-12-04T04:23:34;100350.53;;;3.34;100.00
12203;BME280;6164;42.178;24.622;2023-12-04T04:26:02;100348.84;;;3.33;100.00
12203;BME280;6164;42.178;24.622;2023-12-04T04:28:29;100349.16;;;3.28;100.00
12203;BME280;6164;42.178;24.622;2023-12-04T04:30:56;100357.41;;;3.22;100.00
12203;BME280;6164;42.178;24.622;2023-12-04T04:33:22;100359.28;;;3.20;100.00
12203;BME280;6164;42.178;24.622;2023-12-04T04:35:49;100358.53;;;3.18;100.00
12203;BME280;6164;42.178;24.622;2023-12-04T04:38:16;100355.28;;;3.15;100.00
12203;BME280;6164;42.178;24.622;2023-12-04T04:40:43;100370.44;;;3.10;100.00
12203;BME280;6164;42.178;24.622;2023-12-04T04:43:11;100370.72;;;3.05;100.00
12203;BME280;6164;42.178;24.622;2023-12-04T04:45:38;100374.94;;;3.08;100.00
12203;BME280;6164;42.178;24.622;2023-12-04T04:48:05;100383.38;;;3.11;100.00
12203;BME280;6164;42.178;24.622;2023-12-04T04:50:31;100375.56;;;3.11;100.00
12203;BME280;6164;42.178;24.622;2023-12-04T04:52:58;100379.28;;;3.07;100.00
12203;BME280;6164;42.178;24.622;2023-12-04T04:55:25;100376.59;;;3.09;100.00
12203;BME280;6164;42.178;24.622;2023-12-04T04:57:51;100380.16;;;3.08;100.00
12203;BME280;6164;42.178;24.622;2023-12-04T05:00:19;100392.88;;;3.00;100.00
12203;BME280;6164;42.178;24.622;2023-12-04T05:02:46;100387.09;;;2.95;100.00
12203;BME280;6164;42.178;24.622;2023-12-04T05:05:13;100395.94;;;2.92;100.00
12203;BME280;6164;42.178;24.622;2023-12-04T05:07:39;100403.03;;;2.90;100.00
12203;BME280;6164;42.178;24.622;2023-12-04T05:10:06;100407.66;;;2.87;100.00
12203;BME280;6164;42.178;24.622;2023-12-04T05:12:33;100397.09;;;2.88;100.00
12203;BME280;6164;42.178;24.622;2023-12-04T05:14:59;100411.06;;;2.87;100.00
12203;BME280;6164;42.178;24.622;2023-12-04T05:17:27;100407.22;;;2.93;100.00
12203;BME280;6164;42.178;24.622;2023-12-04T05:19:54;100403.13;;;2.89;100.00
12203;BME280;6164;42.178;24.622;2023-12-04T05:22:20;100423.19;;;2.88;100.00
12203;BME280;6164;42.178;24.622;2023-12-04T05:24:47;100420.28;;;2.93;100.00
12203;BME280;6164;42.178;24.622;2023-12-04T05:27:14;100434.16;;;2.93;100.00
12203;BME280;6164;42.178;24.622;2023-12-04T05:29:40;100427.78;;;2.97;100.00
12203;BME280;6164;42.178;24.622;2023-12-04T05:32:07;100429.13;;;2.90;100.00
12203;BME280;6164;42.178;24.622;2023-12-04T05:34:35;100432.38;;;2.94;100.00
12203;BME280;6164;42.178;24.622;2023-12-04T05:37:02;100433.66;;;3.01;100.00
12203;BME280;6164;42.178;24.622;2023-12-04T05:39:28;100439.97;;;2.97;100.00
12203;BME280;6164;42.178;24.622;2023-12-04T05:41:55;100451.06;;;3.00;100.00
12203;BME280;6164;42.178;24.622;2023-12-04T05:44:21;100447.53;;;3.01;100.00
12203;BME280;6164;42.178;24.622;2023-12-04T05:46:48;100450.81;;;2.91;100.00
12203;BME280;6164;42.178;24.622;2023-12-04T05:49:15;100460.84;;;2.97;100.00
12203;BME280;6164;42.178;24.622;2023-12-04T05:51:43;100458.25;;;2.97;100.00
12203;BME280;6164;42.178;24.622;2023-12-04T05:54:09;100459.59;;;2.90;100.00
12203;BME280;6164;42.178;24.622;2023-12-04T05:56:36;100467.78;;;2.84;100.00
12203;BME280;6164;42.178;24.622;2023-12-04T05:59:03;100472.66;;;2.76;100.00
12203;BME280;6164;42.178;24.622;2023-12-04T06:01:29;100472.88;;;2.72;100.00
12203;BME280;6164;42.178;24.622;2023-12-04T06:03:56;100471.84;;;2.75;100.00
12203;BME280;6164;42.178;24.622;2023-12-04T06:06:22;100466.34;;;2.80;100.00
12203;BME280;6164;42.178;24.622;2023-12-04T06:08:50;100471.25;;;2.84;100.00
12203;BME280;6164;42.178;24.622;2023-12-04T06:11:17;100463.66;;;2.94;100.00
12203;BME280;6164;42.178;24.622;2023-12-04T06:13:44;100467.75;;;2.98;100.00
12203;BME280;6164;42.178;24.622;2023-12-04T06:16:10;100469.59;;;3.10;100.00
12203;BME280;6164;42.178;24.622;2023-12-04T06:18:37;100477.75;;;3.18;100.00
12203;BME280;6164;42.178;24.622;2023-12-04T06:21:04;100487.97;;;3.21;100.00
12203;BME280;6164;42.178;24.622;2023-12-04T06:23:31;100498.09;;;3.25;100.00
12203;BME280;6164;42.178;24.622;2023-12-04T06:26:00;100497.88;;;3.16;100.00
12203;BME280;6164;42.178;24.622;2023-12-04T06:28:27;100512.91;;;3.25;100.00
12203;BME280;6164;42.178;24.622;2023-12-04T06:30:53;100507.69;;;3.25;100.00
12203;BME280;6164;42.178;24.622;2023-12-04T06:33:20;100501.50;;;3.13;100.00
12203;BME280;6164;42.178;24.622;2023-12-04T06:35:50;100498.88;;;3.13;100.00
12203;BME280;6164;42.178;24.622;2023-12-04T06:38:17;100509.22;;;3.15;100.00
12203;BME280;6164;42.178;24.622;2023-12-04T06:40:45;100506.00;;;3.11;100.00
12203;BME280;6164;42.178;24.622;2023-12-04T06:43:13;100508.31;;;3.16;100.00
12203;BME280;6164;42.178;24.622;2023-12-04T06:45:41;100513.53;;;3.16;100.00
12203;BME280;6164;42.178;24.622;2023-12-04T06:48:08;100506.00;;;3.11;100.00
12203;BME280;6164;42.178;24.622;2023-12-04T06:50:36;100516.34;;;3.13;100.00
12203;BME280;6164;42.178;24.622;2023-12-04T06:53:04;100517.34;;;3.10;100.00
12203;BME280;6164;42.178;24.622;2023-12-04T06:55:30;100515.19;;;3.17;100.00
12203;BME280;6164;42.178;24.622;2023-12-04T06:57:57;100512.19;;;3.23;100.00
12203;BME280;6164;42.178;24.622;2023-12-04T07:00:25;100519.81;;;3.26;100.00
12203;BME280;6164;42.178;24.622;2023-12-04T07:02:52;100516.38;;;3.25;100.00
12203;BME280;6164;42.178;24.622;2023-12-04T07:05:19;100524.22;;;3.38;100.00
12203;BME280;6164;42.178;24.622;2023-12-04T07:07:46;100525.06;;;3.38;100.00
12203;BME280;6164;42.178;24.622;2023-12-04T07:10:13;100516.31;;;3.39;100.00
12203;BME280;6164;42.178;24.622;2023-12-04T07:12:40;100517.03;;;3.41;100.00
12203;BME280;6164;42.178;24.622;2023-12-04T07:15:07;100523.72;;;3.45;100.00
12203;BME280;6164;42.178;24.622;2023-12-04T07:17:35;100519.88;;;3.51;100.00
12203;BME280;6164;42.178;24.622;2023-12-04T07:20:02;100531.78;;;3.55;100.00
12203;BME280;6164;42.178;24.622;2023-12-04T07:22:31;100518.41;;;3.47;100.00
12203;BME280;6164;42.178;24.622;2023-12-04T07:24:58;100519.78;;;3.52;100.00
12203;BME280;6164;42.178;24.622;2023-12-04T07:27:24;100522.69;;;3.48;100.00
12203;BME280;6164;42.178;24.622;2023-12-04T07:29:51;100519.78;;;3.52;100.00
12203;BME280;6164;42.178;24.622;2023-12-04T07:32:17;100530.34;;;3.63;100.00
12203;BME280;6164;42.178;24.622;2023-12-04T07:34:46;100533.16;;;3.60;100.00
12203;BME280;6164;42.178;24.622;2023-12-04T07:37:13;100523.22;;;3.53;100.00
12203;BME280;6164;42.178;24.622;2023-12-04T07:39:39;100524.28;;;3.63;100.00
12203;BME280;6164;42.178;24.622;2023-12-04T07:42:08;100529.00;;;3.70;100.00
12203;BME280;6164;42.178;24.622;2023-12-04T07:44:34;100535.47;;;3.77;100.00
12203;BME280;6164;42.178;24.622;2023-12-04T07:47:02;100539.47;;;3.83;100.00
12203;BME280;6164;42.178;24.622;2023-12-04T07:49:28;100538.44;;;3.85;100.00
12203;BME280;6164;42.178;24.622;2023-12-04T07:51:56;100538.84;;;3.92;100.00
12203;BME280;6164;42.178;24.622;2023-12-04T07:54:23;100543.44;;;4.01;100.00
12203;BME280;6164;42.178;24.622;2023-12-04T07:56:51;100545.34;;;4.12;100.00
12203;BME280;6164;42.178;24.622;2023-12-04T07:59:18;100551.09;;;4.17;100.00
12203;BME280;6164;42.178;24.622;2023-12-04T08:01:45;100553.88;;;4.14;100.00
12203;BME280;6164;42.178;24.622;2023-12-04T08:04:11;100559.13;;;4.26;100.00
12203;BME280;6164;42.178;24.622;2023-12-04T08:06:38;100552.53;;;4.46;100.00
12203;BME280;6164;42.178;24.622;2023-12-04T08:09:06;100559.41;;;4.59;100.00
12203;BME280;6164;42.178;24.622;2023-12-04T08:11:35;100559.63;;;4.44;100.00
12203;BME280;6164;42.178;24.622;2023-12-04T08:14:02;100564.88;;;4.44;100.00
12203;BME280;6164;42.178;24.622;2023-12-04T08:16:28;100564.94;;;4.55;100.00
12203;BME280;6164;42.178;24.622;2023-12-04T08:18:55;100563.59;;;4.62;100.00
12203;BME280;6164;42.178;24.622;2023-12-04T08:21:22;100560.56;;;4.68;100.00
12203;BME280;6164;42.178;24.622;2023-12-04T08:23:48;100556.81;;;4.59;100.00
12203;BME280;6164;42.178;24.622;2023-12-04T08:26:22;100544.97;;;4.54;100.00
12203;BME280;6164;42.178;24.622;2023-12-04T08:28:49;100533.44;;;4.69;100.00
12203;BME280;6164;42.178;24.622;2023-12-04T08:31:16;100550.81;;;4.70;100.00
12203;BME280;6164;42.178;24.622;2023-12-04T08:33:42;100544.31;;;4.75;100.00
12203;BME280;6164;42.178;24.622;2023-12-04T08:36:10;100538.84;;;4.91;100.00
12203;BME280;6164;42.178;24.622;2023-12-04T08:38:37;100530.03;;;4.92;100.00
12203;BME280;6164;42.178;24.622;2023-12-04T08:41:04;100538.00;;;4.90;100.00
12203;BME280;6164;42.178;24.622;2023-12-04T08:43:32;100538.56;;;5.06;100.00
12203;BME280;6164;42.178;24.622;2023-12-04T08:45:59;100545.97;;;5.12;100.00
12203;BME280;6164;42.178;24.622;2023-12-04T08:48:25;100540.31;;;5.18;100.00
12203;BME280;6164;42.178;24.622;2023-12-04T08:50:52;100547.38;;;5.05;100.00
12203;BME280;6164;42.178;24.622;2023-12-04T08:53:19;100534.56;;;5.13;100.00
12203;BME280;6164;42.178;24.622;2023-12-04T08:55:46;100534.38;;;5.27;100.00
12203;BME280;6164;42.178;24.622;2023-12-04T08:58:12;100544.31;;;5.35;100.00
12203;BME280;6164;42.178;24.622;2023-12-04T09:00:40;100533.22;;;5.31;100.00
12203;BME280;6164;42.178;24.622;2023-12-04T09:03:08;100526.88;;;5.47;100.00
12203;BME280;6164;42.178;24.622;2023-12-04T09:05:35;100531.91;;;5.61;100.00
12203;BME280;6164;42.178;24.622;2023-12-04T09:08:02;100527.63;;;5.60;100.00
12203;BME280;6164;42.178;24.622;2023-12-04T09:10:29;100525.88;;;5.71;100.00
12203;BME280;6164;42.178;24.622;2023-12-04T09:12:55;100517.09;;;5.83;100.00
12203;BME280;6164;42.178;24.622;2023-12-04T09:15:22;100515.03;;;6.10;100.00
12203;BME280;6164;42.178;24.622;2023-12-04T09:17:50;100519.56;;;6.30;100.00
12203;BME280;6164;42.178;24.622;2023-12-04T09:20:16;100526.34;;;6.33;100.00
12203;BME280;6164;42.178;24.622;2023-12-04T09:22:43;100516.81;;;6.43;100.00
12203;BME280;6164;42.178;24.622;2023-12-04T09:25:10;100513.69;;;6.71;100.00
12203;BME280;6164;42.178;24.622;2023-12-04T09:27:36;100513.59;;;6.61;100.00
12203;BME280;6164;42.178;24.622;2023-12-04T09:30:03;100508.44;;;6.71;100.00
12203;BME280;6164;42.178;24.622;2023-12-04T09:32:30;100507.25;;;6.75;100.00
12203;BME280;6164;42.178;24.622;2023-12-04T09:34:58;100502.06;;;7.07;100.00
12203;BME280;6164;42.178;24.622;2023-12-04T09:37:27;100513.19;;;7.31;100.00
12203;BME280;6164;42.178;24.622;2023-12-04T09:39:54;100519.28;;;7.31;100.00
12203;BME280;6164;42.178;24.622;2023-12-04T09:42:21;100525.56;;;6.97;100.00
12203;BME280;6164;42.178;24.622;2023-12-04T09:44:48;100505.63;;;7.06;100.00
12203;BME280;6164;42.178;24.622;2023-12-04T09:47:16;100492.22;;;7.20;100.00
12203;BME280;6164;42.178;24.622;2023-12-04T09:49:44;100501.31;;;7.16;100.00
12203;BME280;6164;42.178;24.622;2023-12-04T09:52:12;100504.38;;;7.21;100.00
12203;BME280;6164;42.178;24.622;2023-12-04T09:54:38;100501.22;;;7.06;100.00
12203;BME280;6164;42.178;24.622;2023-12-04T09:57:06;100486.63;;;7.13;100.00
12203;BME280;6164;42.178;24.622;2023-12-04T09:59:33;100478.78;;;7.02;100.00
12203;BME280;6164;42.178;24.622;2023-12-04T10:02:01;100469.50;;;6.98;100.00
12203;BME280;6164;42.178;24.622;2023-12-04T10:04:27;100479.38;;;7.06;100.00
12203;BME280;6164;42.178;24.622;2023-12-04T10:06:54;100480.28;;;7.16;100.00
12203;BME280;6164;42.178;24.622;2023-12-04T10:09:22;100477.13;;;7.33;100.00
12203;BME280;6164;42.178;24.622;2023-12-04T10:11:50;100471.41;;;7.48;100.00
12203;BME280;6164;42.178;24.622;2023-12-04T10:14:17;100483.03;;;7.46;100.00
12203;BME280;6164;42.178;24.622;2023-12-04T10:16:44;100474.00;;;7.59;100.00
12203;BME280;6164;42.178;24.622;2023-12-04T10:19:18;100484.69;;;7.47;100.00
12203;BME280;6164;42.178;24.622;2023-12-04T10:21:45;100486.66;;;7.34;100.00
12203;BME280;6164;42.178;24.622;2023-12-04T10:24:12;100475.69;;;7.29;100.00
12203;BME280;6164;42.178;24.622;2023-12-04T10:26:48;100467.63;;;7.21;100.00
12203;BME280;6164;42.178;24.622;2023-12-04T10:29:16;100473.28;;;7.05;100.00
12203;BME280;6164;42.178;24.622;2023-12-04T10:31:43;100459.69;;;7.00;100.00
12203;BME280;6164;42.178;24.622;2023-12-04T10:34:09;100460.88;;;7.07;100.00
12203;BME280;6164;42.178;24.622;2023-12-04T10:36:36;100464.22;;;7.09;100.00
12203;BME280;6164;42.178;24.622;2023-12-04T10:39:03;100457.78;;;7.02;100.00
12203;BME280;6164;42.178;24.622;2023-12-04T10:41:30;100459.69;;;7.00;100.00
12203;BME280;6164;42.178;24.622;2023-12-04T10:43:59;100452.41;;;7.04;100.00
12203;BME280;6164;42.178;24.622;2023-12-04T10:46:26;100458.94;;;7.09;100.00
12203;BME280;6164;42.178;24.622;2023-12-04T10:48:52;100465.72;;;7.12;100.00
12203;BME280;6164;42.178;24.622;2023-12-04T10:51:20;100460.81;;;7.18;100.00
12203;BME280;6164;42.178;24.622;2023-12-04T10:53:47;100459.22;;;7.27;100.00
12203;BME280;6164;42.178;24.622;2023-12-04T10:56:15;100467.22;;;7.36;100.00
12203;BME280;6164;42.178;24.622;2023-12-04T10:58:44;100459.13;;;7.49;100.00
12203;BME280;6164;42.178;24.622;2023-12-04T11:01:15;100464.19;;;7.61;100.00
12203;BME280;6164;42.178;24.622;2023-12-04T11:03:43;100471.25;;;7.61;100.00
12203;BME280;6164;42.178;24.622;2023-12-04T11:06:11;100466.00;;;7.61;100.00
12203;BME280;6164;42.178;24.622;2023-12-04T11:08:39;100462.66;;;7.59;100.00
12203;BME280;6164;42.178;24.622;2023-12-04T11:11:08;100456.47;;;7.69;100.00
12203;BME280;6164;42.178;24.622;2023-12-04T11:13:37;100458.63;;;7.75;100.00
12203;BME280;6164;42.178;24.622;2023-12-04T11:16:06;100464.50;;;7.88;100.00
12203;BME280;6164;42.178;24.622;2023-12-04T11:18:37;100464.53;;;7.98;100.00
12203;BME280;6164;42.178;24.622;2023-12-04T11:21:07;100466.72;;;7.93;100.00
12203;BME280;6164;42.178;24.622;2023-12-04T11:23:34;100471.22;;;8.02;100.00
12203;BME280;6164;42.178;24.622;2023-12-04T11:26:01;100468.31;;;8.05;100.00
12203;BME280;6164;42.178;24.622;2023-12-04T11:28:29;100466.09;;;8.31;100.00
12203;BME280;6164;42.178;24.622;2023-12-04T11:30:56;100467.94;;;8.30;100.00
12203;BME280;6164;42.178;24.622;2023-12-04T11:33:23;100476.34;;;8.34;100.00
12203;BME280;6164;42.178;24.622;2023-12-04T11:35:52;100469.91;;;8.47;100.00
12203;BME280;6164;42.178;24.622;2023-12-04T11:38:18;100484.19;;;8.45;100.00
12203;BME280;6164;42.178;24.622;2023-12-04T11:40:45;100469.06;;;8.47;100.00
12203;BME280;6164;42.178;24.622;2023-12-04T11:43:21;100469.13;;;8.56;100.00
12203;BME280;6164;42.178;24.622;2023-12-04T11:45:48;100468.28;;;8.56;100.00
12203;BME280;6164;42.178;24.622;2023-12-04T11:48:15;100470.63;;;8.49;100.00
12203;BME280;6164;42.178;24.622;2023-12-04T11:50:42;100464.50;;;8.49;100.00
12203;BME280;6164;42.178;24.622;2023-12-04T11:53:11;100469.78;;;8.49;100.00
12203;BME280;6164;42.178;24.622;2023-12-04T11:55:39;100471.38;;;8.31;100.00
12203;BME280;6164;42.178;24.622;2023-12-04T11:58:08;100475.72;;;8.21;100.00
12203;BME280;6164;42.178;24.622;2023-12-04T12:00:35;100481.44;;;8.26;100.00
12203;BME280;6164;42.178;24.622;2023-12-04T12:03:04;100471.53;;;8.39;100.00
12203;BME280;6164;42.178;24.622;2023-12-04T12:05:31;100465.78;;;8.54;100.00
12203;BME280;6164;42.178;24.622;2023-12-04T12:07:59;100468.28;;;8.65;100.00
12203;BME280;6164;42.178;24.622;2023-12-04T12:10:28;100465.38;;;8.68;100.00
12203;BME280;6164;42.178;24.622;2023-12-04T12:12:55;100468.84;;;8.59;100.00
12203;BME280;6164;42.178;24.622;2023-12-04T12:15:21;100472.34;;;8.69;100.00
12203;BME280;6164;42.178;24.622;2023-12-04T12:17:48;100464.72;;;8.76;100.00
12203;BME280;6164;42.178;24.622;2023-12-04T12:20:15;100454.78;;;8.89;100.00
12203;BME280;6164;42.178;24.622;2023-12-04T12:22:42;100463.81;;;8.96;100.00
12203;BME280;6164;42.178;24.622;2023-12-04T12:25:10;100463.38;;;9.10;100.00
12203;BME280;6164;42.178;24.622;2023-12-04T12:27:38;100471.69;;;9.24;100.00
12203;BME280;6164;42.178;24.622;2023-12-04T12:30:05;100475.19;;;9.25;100.00
12203;BME280;6164;42.178;24.622;2023-12-04T12:32:32;100483.50;;;9.30;100.00
12203;BME280;6164;42.178;24.622;2023-12-04T12:34:59;100469.47;;;9.29;100.00
12203;BME280;6164;42.178;24.622;2023-12-04T12:37:25;100484.88;;;9.05;100.00
12203;BME280;6164;42.178;24.622;2023-12-04T12:39:52;100476.41;;;8.92;100.00
12203;BME280;6164;42.178;24.622;2023-12-04T12:42:22;100461.97;;;8.96;100.00
12203;BME280;6164;42.178;24.622;2023-12-04T12:44:50;100473.06;;;9.09;99.69
12203;BME280;6164;42.178;24.622;2023-12-04T12:47:17;100465.06;;;9.20;100.00
12203;BME280;6164;42.178;24.622;2023-12-04T12:49:44;100480.72;;;9.31;96.70